This is the latest recevied weather packets stored in our database for station/object VA7NEZ. If no packets are shown the sender has not sent any weather packets the latest 10 day(s).
| Time | Temp. | Humidity | Pressure | Rain* | Wind** | Luminosity | Snow |
|---|---|---|---|---|---|---|---|
| 1778179263 | 21.11° C | 32% | 1015.4 hPa | 0 mm | - | - | - |
| 1778177621 | 20.56° C | 35% | 1015.3 hPa | 0 mm | - | - | - |
| 1778177057 | 20° C | 35% | 1015.5 hPa | 0 mm | - | - | - |
| 1778176557 | 19.44° C | 37% | 1015.5 hPa | 0 mm | - | - | - |
| 1778175997 | 0° C | 100% | 1015.6 hPa | 0 mm | - | - | - |
| 1778174923 | 0° C | 100% | 1015.7 hPa | 0 mm | - | - | - |
| 1778174327 | 18.89° C | 38% | 1015.8 hPa | 0 mm | - | - | - |
| 1778173743 | 18.33° C | 39% | 1015.9 hPa | 0 mm | - | - | - |
| 1778173149 | 0° C | 100% | 1015.9 hPa | 0 mm | - | - | - |
| 1778172632 | 17.78° C | 41% | 1016 hPa | 0 mm | - | - | - |
| 1778172101 | 17.22° C | 41% | 1016 hPa | 0 mm | - | - | - |
| 1778170476 | 16.67° C | 45% | 1016.3 hPa | 0 mm | - | - | - |
| 1778169396 | 15.56° C | 51% | 1016.5 hPa | 0 mm | - | - | - |
| 1778168292 | 15° C | 49% | 1016.7 hPa | 0 mm | - | - | - |
| 1778167776 | 15° C | 49% | 1016.8 hPa | 0 mm | - | - | - |
| 1778167217 | 15° C | 51% | 1016.9 hPa | 0 mm | - | - | - |
| 1778166722 | 14.44° C | 51% | 1016.8 hPa | 0 mm | - | - | - |
| 1778165612 | 14.44° C | 55% | 1017 hPa | 0 mm | - | - | - |
| 1778165077 | 13.89° C | 58% | 1016.8 hPa | 0 mm | - | - | - |
| 1778164093 | 12.78° C | 65% | 1016.8 hPa | 0 mm | - | - | - |
| 1778163597 | 12.22° C | 67% | 1016.7 hPa | 0 mm | - | - | - |
| 1778163062 | 11.67° C | 67% | 1016.6 hPa | 0 mm | - | - | - |
| 1778162501 | 11.67° C | 66% | 1016.7 hPa | 0 mm | - | - | - |
| 1778161922 | 11.11° C | 67% | 1016.5 hPa | 0 mm | - | - | - |
| 1778161357 | 10.56° C | 69% | 1016.6 hPa | 0 mm | - | - | - |
* Rain latest hour (hover to see other rain measurements)
** Current wind speed in m/s (hover to see current wind gust speed)